Terminal Aerodrome Forecast
Issued by NWS Paducah, KY

Home | Current Version | Previous Version | Text Only | Print | Product List | Glossary On
Versions: 1 2 3 4 5 6 7 8 9 10 11 12 13 14 15 16
000
FTUS43 KPAH 231120
TAFPAH
TAF
KPAH 231120Z 2312/2412 13004KT P6SM SCT020 BKN040
     FM231500 15006KT P6SM VCSH BKN020
     FM231800 18007KT P6SM VCSH BKN025
     FM240000 17005KT P6SM BKN100=

USA.gov is the U.S. government's official web portal to all federal, state and local government web resources and services.